createdAt,value
2022-11-02T00:02:18.499Z,97970.64
2022-11-02T00:04:46.136Z,97970.42
2022-11-02T00:07:13.652Z,97969.42
2022-11-02T00:09:41.000Z,97963.84
2022-11-02T00:12:08.584Z,97957.53
2022-11-02T00:14:36.232Z,97957.08
2022-11-02T00:17:04.007Z,97956.38
2022-11-02T00:19:31.504Z,97952.14
2022-11-02T00:22:01.044Z,97959.47
2022-11-02T00:24:31.990Z,97959.31
2022-11-02T00:26:59.738Z,97965.28
2022-11-02T00:29:33.456Z,97957.77
2022-11-02T00:31:57.614Z,97956.48
2022-11-02T00:34:25.339Z,97959.45
2022-11-02T00:36:55.610Z,97954.39
2022-11-02T00:39:23.569Z,97950.41
2022-11-02T00:41:51.321Z,97954.73
2022-11-02T00:44:19.222Z,97950.41
2022-11-02T00:46:47.065Z,97953.05
2022-11-02T00:49:14.891Z,97953.05
2022-11-02T00:51:43.837Z,97950.91
2022-11-02T00:54:13.066Z,97951.70
2022-11-02T00:56:40.691Z,97951.45
2022-11-02T00:59:08.406Z,97948.42
2022-11-02T01:01:36.076Z,97941.11
2022-11-02T01:04:03.836Z,97933.78
2022-11-02T01:06:32.224Z,97932.93
2022-11-02T01:09:03.596Z,97935.63
2022-11-02T01:11:36.630Z,97937.22
2022-11-02T01:14:07.837Z,97939.67
2022-11-02T01:16:41.073Z,97934.06
2022-11-02T01:19:10.950Z,97934.13
2022-11-02T01:21:44.038Z,97932.59
2022-11-02T01:24:14.454Z,97927.53
2022-11-02T01:26:42.860Z,97933.50
2022-11-02T01:29:13.727Z,97921.45
2022-11-02T01:31:41.132Z,97924.23
2022-11-02T01:34:08.568Z,97922.64
2022-11-02T01:36:36.344Z,97917.30
2022-11-02T01:39:04.000Z,97921.95
2022-11-02T01:41:31.707Z,97919.53
2022-11-02T01:44:04.344Z,97910.98
2022-11-02T01:46:42.146Z,97906.72
2022-11-02T01:49:14.339Z,97907.60
2022-11-02T01:51:53.231Z,97903.34
2022-11-02T01:54:29.034Z,97900.42
2022-11-02T01:57:01.220Z,97900.23
2022-11-02T01:59:37.004Z,97907.30
2022-11-02T02:02:09.637Z,97911.66
2022-11-02T02:04:37.979Z,97917.56
2022-11-02T02:07:05.856Z,97920.80
2022-11-02T02:09:34.353Z,97923.72
2022-11-02T02:12:02.363Z,97913.97
2022-11-02T02:14:30.187Z,97916.31
2022-11-02T02:17:36.257Z,97911.64
2022-11-02T02:20:36.877Z,97919.15
2022-11-02T02:23:55.160Z,97915.91
2022-11-02T02:26:37.493Z,97922.42
2022-11-02T02:29:24.565Z,97916.02
2022-11-02T02:32:16.312Z,97926.62
2022-11-02T02:34:54.682Z,97933.70
2022-11-02T02:37:53.518Z,97939.18
2022-11-02T02:40:26.494Z,97940.03
2022-11-02T02:43:01.348Z,97933.66
2022-11-02T02:45:59.173Z,97934.61
2022-11-02T02:48:28.222Z,97930.16
2022-11-02T02:51:03.846Z,97936.45
2022-11-02T02:53:50.581Z,97941.91
2022-11-02T02:56:21.947Z,97961.16
2022-11-02T02:59:00.558Z,97960.27
2022-11-02T03:01:28.775Z,97959.80
2022-11-02T03:03:56.495Z,97953.36
2022-11-02T03:06:33.870Z,97963.03
2022-11-02T03:09:20.520Z,97960.33
2022-11-02T03:12:06.101Z,97963.77
2022-11-02T03:15:13.473Z,97967.26
2022-11-02T03:18:25.620Z,97962.42
2022-11-02T03:21:42.382Z,97973.16
2022-11-02T03:24:17.048Z,97966.87
2022-11-02T03:27:13.258Z,97973.53
2022-11-02T03:30:16.896Z,97975.91
2022-11-02T03:33:07.909Z,97972.34
2022-11-02T03:35:52.237Z,97970.36
2022-11-02T03:38:54.471Z,97970.53
2022-11-02T03:41:24.622Z,97960.00
2022-11-02T03:43:57.710Z,97965.58
2022-11-02T03:46:27.493Z,97956.16
2022-11-02T03:48:56.594Z,97955.91
2022-11-02T03:51:26.634Z,97954.56
2022-11-02T03:54:07.733Z,97949.75
2022-11-02T03:56:41.602Z,97954.31
2022-11-02T03:59:09.313Z,97952.66
2022-11-02T04:01:42.810Z,97952.90
2022-11-02T04:04:11.335Z,97953.43
2022-11-02T04:06:41.925Z,97950.19
2022-11-02T04:09:11.615Z,97953.67
2022-11-02T04:11:58.188Z,97948.55
2022-11-02T04:14:40.884Z,97950.98
2022-11-02T04:19:59.053Z,97948.08
2022-11-02T04:22:44.883Z,97942.81
2022-11-02T04:25:20.044Z,97947.97
2022-11-02T04:28:09.329Z,97941.28
2022-11-02T04:30:41.468Z,97950.20
2022-11-02T04:33:27.726Z,97953.69
2022-11-02T04:36:00.951Z,97952.89
2022-11-02T04:38:42.126Z,97941.28
2022-11-02T04:41:33.721Z,97951.72
2022-11-02T04:44:01.927Z,97950.36
2022-11-02T04:46:33.866Z,97953.53
2022-11-02T04:49:01.866Z,97951.92
2022-11-02T04:51:31.391Z,97948.68
2022-11-02T04:53:59.488Z,97944.88
2022-11-02T04:56:29.033Z,97950.19
2022-11-02T04:58:59.287Z,97949.81
2022-11-02T05:01:29.645Z,97957.86
2022-11-02T05:03:58.926Z,97957.64
2022-11-02T05:06:27.546Z,97959.63
2022-11-02T05:08:55.577Z,97958.33
2022-11-02T05:11:24.032Z,97963.73
2022-11-02T05:13:51.910Z,97963.02
2022-11-02T05:16:19.560Z,97966.91
2022-11-02T05:18:48.758Z,97961.64
2022-11-02T05:21:16.701Z,97966.50
2022-11-02T05:23:44.811Z,97971.63
2022-11-02T05:26:12.562Z,97968.70
2022-11-02T05:28:41.734Z,97975.72
2022-11-02T05:31:09.858Z,97979.47
2022-11-02T05:33:37.575Z,97980.30
2022-11-02T05:36:07.435Z,97981.85
2022-11-02T05:38:36.281Z,97985.62
2022-11-02T05:41:04.026Z,97979.70
2022-11-02T05:43:33.514Z,97991.27
2022-11-02T05:46:03.529Z,97989.97
2022-11-02T05:48:33.271Z,97988.08
2022-11-02T05:51:03.322Z,97992.89
2022-11-02T05:53:33.341Z,97995.53
2022-11-02T05:56:03.367Z,97994.44
2022-11-02T05:58:32.418Z,97997.69
2022-11-02T06:01:02.761Z,98004.16
2022-11-02T06:03:31.547Z,98005.00
2022-11-02T06:06:02.823Z,98010.08
2022-11-02T06:08:38.955Z,98006.29
2022-11-02T06:11:09.753Z,98006.34
2022-11-02T06:13:37.404Z,98012.03
2022-11-02T06:16:09.714Z,98012.84
2022-11-02T06:18:39.188Z,98025.51
2022-11-02T06:21:07.461Z,98027.44
2022-11-02T06:23:35.742Z,98032.03
2022-11-02T06:26:03.657Z,98039.55
2022-11-02T06:28:31.510Z,98038.47
2022-11-02T06:30:59.163Z,98044.69
2022-11-02T06:33:27.132Z,98052.51
2022-11-02T06:35:55.382Z,98055.73
2022-11-02T06:38:23.728Z,98063.27
2022-11-02T06:41:02.587Z,98059.73
2022-11-02T06:43:30.567Z,98061.36
2022-11-02T06:45:58.588Z,98057.58
2022-11-02T06:48:34.201Z,98058.92
2022-11-02T06:50:57.739Z,98061.31
2022-11-02T06:53:25.932Z,98060.48
2022-11-02T06:55:55.874Z,98062.34
2022-11-02T06:58:24.127Z,98071.47
2022-11-02T07:01:01.523Z,98069.58
2022-11-02T07:03:30.532Z,98066.33
2022-11-02T07:05:58.993Z,98066.02
2022-11-02T07:08:29.033Z,98070.01
2022-11-02T07:10:57.531Z,98068.66
2022-11-02T07:13:25.146Z,98069.21
2022-11-02T07:15:54.248Z,98070.75
2022-11-02T07:18:22.910Z,98075.33
2022-11-02T07:20:50.585Z,98071.77
2022-11-02T07:23:18.222Z,98077.03
2022-11-02T07:25:45.799Z,98078.60
2022-11-02T07:28:13.778Z,98077.77
2022-11-02T07:30:41.627Z,98078.25
2022-11-02T07:33:09.281Z,98072.00
2022-11-02T07:35:37.226Z,98069.84
2022-11-02T07:38:07.369Z,98067.72
2022-11-02T07:40:36.084Z,98068.81
2022-11-02T07:43:05.324Z,98065.02
2022-11-02T07:45:34.934Z,98069.06
2022-11-02T07:48:02.480Z,98070.66
2022-11-02T07:50:29.929Z,98061.52
2022-11-02T07:52:58.697Z,98058.55
2022-11-02T07:55:29.872Z,98060.44
2022-11-02T07:58:03.896Z,98059.38
2022-11-02T08:00:34.956Z,98059.37
2022-11-02T08:03:04.923Z,98059.79
2022-11-02T08:05:38.905Z,98062.97
2022-11-02T08:08:11.156Z,98071.28
2022-11-02T08:10:40.412Z,98066.61
2022-11-02T08:13:15.279Z,98067.81
2022-11-02T08:15:42.945Z,98068.50
2022-11-02T08:18:19.969Z,98060.97
2022-11-02T08:20:48.281Z,98060.42
2022-11-02T08:23:18.517Z,98062.16
2022-11-02T08:25:47.562Z,98069.09
2022-11-02T08:28:19.404Z,98068.77
2022-11-02T08:30:47.252Z,98060.05
2022-11-02T08:33:16.763Z,98065.91
2022-11-02T08:35:46.170Z,98069.66
2022-11-02T08:38:14.842Z,98074.14
2022-11-02T08:40:42.947Z,98074.67
2022-11-02T08:43:13.684Z,98068.67
2022-11-02T08:48:14.877Z,98066.77
2022-11-02T08:50:42.189Z,98066.99
2022-11-02T08:53:10.005Z,98072.83
2022-11-02T08:55:37.461Z,98072.36
2022-11-02T08:58:05.299Z,98070.48
2022-11-02T09:00:34.597Z,98074.29
2022-11-02T09:03:09.150Z,98081.58
2022-11-02T09:05:40.276Z,98082.38
2022-11-02T09:08:12.289Z,98083.73
2022-11-02T09:10:40.121Z,98093.50
2022-11-02T09:13:11.490Z,98086.18
2022-11-02T09:15:39.927Z,98088.80
2022-11-02T09:18:09.907Z,98079.52
2022-11-02T09:20:37.519Z,98087.24
2022-11-02T09:23:04.883Z,98084.21
2022-11-02T09:25:32.565Z,98076.91
2022-11-02T09:28:00.244Z,98081.42
2022-11-02T09:30:29.886Z,98076.03
2022-11-02T09:33:06.559Z,98073.30
2022-11-02T09:35:38.929Z,98077.81
2022-11-02T09:38:07.038Z,98077.47
2022-11-02T09:40:42.555Z,98067.16
2022-11-02T09:43:29.460Z,98066.05
2022-11-02T09:46:03.259Z,98067.92
2022-11-02T09:48:44.818Z,98062.77
2022-11-02T09:51:35.655Z,98060.08
2022-11-02T09:54:17.942Z,98069.95
2022-11-02T09:56:46.889Z,98059.91
2022-11-02T09:59:21.951Z,98063.62
2022-11-02T10:02:20.889Z,98064.01
2022-11-02T10:05:09.252Z,98065.78
2022-11-02T10:08:01.053Z,98057.44
2022-11-02T10:10:52.025Z,98052.89
2022-11-02T10:13:25.052Z,98056.23
2022-11-02T10:16:01.198Z,98056.09
2022-11-02T10:18:30.102Z,98051.53
2022-11-02T10:21:02.891Z,98043.66
2022-11-02T10:23:35.500Z,98038.58
2022-11-02T10:26:04.323Z,98034.05
2022-11-02T10:28:38.811Z,98040.45
2022-11-02T10:31:15.830Z,98042.30
2022-11-02T10:33:43.554Z,98039.28
2022-11-02T10:36:31.337Z,98036.27
2022-11-02T10:39:24.205Z,98035.42
2022-11-02T10:42:18.564Z,98032.95
2022-11-02T10:45:21.563Z,98026.27
2022-11-02T10:48:20.071Z,98032.20
2022-11-02T10:50:55.227Z,98032.72
2022-11-02T10:56:13.066Z,98043.41
2022-11-02T10:58:45.814Z,98045.56
2022-11-02T11:01:13.805Z,98037.72
2022-11-02T11:04:06.773Z,98023.88
2022-11-02T11:06:42.771Z,98021.41
2022-11-02T11:09:23.653Z,98030.03
2022-11-02T11:12:21.695Z,98022.63
2022-11-02T11:20:27.755Z,98016.26
2022-11-02T11:23:22.426Z,98022.79
2022-11-02T11:26:10.706Z,98017.88
2022-11-02T11:28:56.473Z,98015.27
2022-11-02T11:31:25.115Z,98021.88
2022-11-02T11:33:56.083Z,98019.33
2022-11-02T11:36:31.106Z,98014.80
2022-11-02T11:39:07.111Z,98011.79
2022-11-02T11:41:39.541Z,98016.27
2022-11-02T11:44:11.688Z,98019.95
2022-11-02T11:46:45.762Z,98015.73
2022-11-02T11:50:02.934Z,98008.07
2022-11-02T11:52:03.867Z,98017.23
2022-11-02T11:54:33.305Z,98013.85
2022-11-02T11:57:27.688Z,98008.52
2022-11-02T11:59:57.918Z,98007.41
2022-11-02T12:02:35.683Z,97994.59
2022-11-02T12:05:16.373Z,97997.53
2022-11-02T12:08:10.399Z,97999.92
2022-11-02T12:10:46.276Z,97996.59
2022-11-02T12:13:45.415Z,97992.19
2022-11-02T12:16:36.624Z,97992.30
2022-11-02T12:19:33.006Z,97992.72
2022-11-02T12:22:05.124Z,97986.28
2022-11-02T12:25:25.332Z,97975.68
2022-11-02T12:28:08.659Z,97971.16
2022-11-02T12:30:44.022Z,97963.89
2022-11-02T12:33:38.479Z,97967.09
2022-11-02T12:36:32.711Z,97960.55
2022-11-02T12:39:11.658Z,97966.93
2022-11-02T12:42:02.275Z,97958.96
2022-11-02T12:45:21.191Z,97962.96
2022-11-02T12:48:00.929Z,97956.88
2022-11-02T12:50:55.123Z,97961.50
2022-11-02T12:53:46.399Z,97967.81
2022-11-02T12:56:34.450Z,97966.02
2022-11-02T12:59:02.348Z,97964.72
2022-11-02T13:01:40.324Z,97967.93
2022-11-02T13:04:30.311Z,97971.11
2022-11-02T13:07:03.725Z,97966.31
2022-11-02T13:09:58.963Z,97970.95
2022-11-02T13:12:27.682Z,97981.45
2022-11-02T13:14:57.756Z,97975.23
2022-11-02T13:17:44.899Z,97981.45
2022-11-02T13:20:29.434Z,97980.09
2022-11-02T13:23:36.045Z,97985.98
2022-11-02T13:26:21.370Z,97978.50
2022-11-02T13:28:53.904Z,97986.76
2022-11-02T13:31:29.347Z,97984.94
2022-11-02T13:34:01.576Z,97982.95
2022-11-02T13:36:29.235Z,97981.27
2022-11-02T13:39:02.617Z,97983.53
2022-11-02T13:42:07.585Z,97987.90
2022-11-02T13:44:43.416Z,97989.59
2022-11-02T13:47:57.730Z,97994.23
2022-11-02T13:50:28.271Z,97995.58
2022-11-02T13:53:04.603Z,97987.94
2022-11-02T13:55:46.115Z,97997.06
2022-11-02T13:58:24.482Z,97998.09
2022-11-02T14:00:56.491Z,97986.11
2022-11-02T14:03:50.898Z,97993.62
2022-11-02T14:06:20.396Z,97991.23
2022-11-02T14:09:04.846Z,97991.69
2022-11-02T14:11:43.358Z,97983.41
2022-11-02T14:14:21.600Z,97989.30
2022-11-02T14:16:55.401Z,97989.07
2022-11-02T14:19:51.961Z,97989.63
2022-11-02T14:22:20.560Z,97996.72
2022-11-02T14:24:53.927Z,97993.31
2022-11-02T14:27:26.993Z,97993.15
2022-11-02T14:29:55.676Z,98000.73
2022-11-02T14:32:43.153Z,97996.66
2022-11-02T14:35:28.284Z,97999.30
2022-11-02T14:38:25.343Z,97995.63
2022-11-02T14:41:07.464Z,97998.80
2022-11-02T14:44:01.873Z,98002.96
2022-11-02T14:46:59.515Z,97997.36
2022-11-02T14:49:34.877Z,98000.13
2022-11-02T14:52:16.952Z,98001.03
2022-11-02T14:55:20.237Z,98005.66
2022-11-02T14:57:59.240Z,98001.26
2022-11-02T15:00:50.187Z,98010.36
2022-11-02T15:03:34.877Z,98001.42
2022-11-02T15:06:13.688Z,97998.63
2022-11-02T15:09:00.641Z,97998.30
2022-11-02T15:11:51.612Z,98001.58
2022-11-02T15:14:42.685Z,97997.83
2022-11-02T15:17:18.950Z,97997.34
2022-11-02T15:19:52.371Z,97999.34
2022-11-02T15:22:45.715Z,98003.74
2022-11-02T15:25:27.465Z,98005.17
2022-11-02T15:28:09.268Z,98009.58
2022-11-02T15:30:47.115Z,98010.44
2022-11-02T15:33:31.590Z,98016.53
2022-11-02T15:36:01.186Z,98015.58
2022-11-02T15:38:35.234Z,98015.26
2022-11-02T15:41:35.351Z,98026.11
2022-11-02T15:44:36.194Z,98033.13
2022-11-02T15:47:48.016Z,98031.77
2022-11-02T15:50:26.552Z,98037.30
2022-11-02T15:53:34.924Z,98040.41
2022-11-02T15:56:10.444Z,98037.19
2022-11-02T15:59:18.715Z,98044.06
2022-11-02T16:01:48.356Z,98038.47
2022-11-02T16:04:21.113Z,98040.21
2022-11-02T16:06:49.362Z,98045.01
2022-11-02T16:09:35.736Z,98055.88
2022-11-02T16:12:23.191Z,98051.87
2022-11-02T16:15:14.373Z,98051.64
2022-11-02T16:17:42.101Z,98051.08
2022-11-02T16:20:19.805Z,98053.89
2022-11-02T16:22:57.874Z,98056.11
2022-11-02T16:25:45.597Z,98052.21
2022-11-02T16:28:31.976Z,98050.92
2022-11-02T16:31:18.489Z,98055.50
2022-11-02T16:33:55.620Z,98064.84
2022-11-02T16:36:33.076Z,98071.45
2022-11-02T16:39:07.570Z,98075.70
2022-11-02T16:41:36.434Z,98073.12
2022-11-02T16:44:14.872Z,98080.95
2022-11-02T16:46:49.985Z,98080.95
2022-11-02T16:49:23.820Z,98087.59
2022-11-02T16:52:02.549Z,98087.27
2022-11-02T16:54:40.297Z,98085.84
2022-11-02T16:57:24.738Z,98087.41
2022-11-02T16:59:59.618Z,98082.84
2022-11-02T17:02:42.524Z,98083.20
2022-11-02T17:05:21.519Z,98092.96
2022-11-02T17:08:04.632Z,98091.54
2022-11-02T17:10:35.774Z,98095.48
2022-11-02T17:13:06.781Z,98100.19
2022-11-02T17:15:36.448Z,98096.12
2022-11-02T17:18:27.267Z,98107.59
2022-11-02T17:21:21.646Z,98106.63
2022-11-02T17:23:49.641Z,98101.49
2022-11-02T17:26:28.524Z,98100.97
2022-11-02T17:29:01.855Z,98101.28
2022-11-02T17:31:37.506Z,98108.45
2022-11-02T17:34:15.278Z,98103.80
2022-11-02T17:36:48.415Z,98097.93
2022-11-02T17:39:18.137Z,98096.84
2022-11-02T17:42:13.094Z,98103.62
2022-11-02T17:44:41.269Z,98099.73
2022-11-02T17:47:14.136Z,98107.59
2022-11-02T17:49:41.615Z,98108.78
2022-11-02T17:52:15.804Z,98108.07
2022-11-02T17:54:43.194Z,98107.80
2022-11-02T17:57:14.815Z,98102.89
2022-11-02T17:59:42.316Z,98097.46
2022-11-02T18:02:15.459Z,98094.37
2022-11-02T18:07:11.753Z,98096.92
2022-11-02T18:09:39.959Z,98099.02
2022-11-02T18:12:14.499Z,98099.25
2022-11-02T18:14:41.998Z,98099.58
2022-11-02T18:17:09.681Z,98099.64
2022-11-02T18:19:37.124Z,98099.05
2022-11-02T18:22:04.651Z,98105.98
2022-11-02T18:24:32.023Z,98103.09
2022-11-02T18:26:59.545Z,98105.63
2022-11-02T18:29:27.043Z,98102.67
2022-11-02T18:31:54.287Z,98101.56
2022-11-02T18:34:21.757Z,98103.89
2022-11-02T18:36:49.313Z,98103.73
2022-11-02T18:39:16.831Z,98111.75
2022-11-02T18:41:44.193Z,98106.42
2022-11-02T18:44:15.486Z,98110.34
2022-11-02T18:46:42.173Z,98109.09
2022-11-02T18:49:09.744Z,98105.99
2022-11-02T18:51:37.289Z,98109.61
2022-11-02T18:54:06.050Z,98108.18
2022-11-02T18:56:34.071Z,98105.84
2022-11-02T18:59:01.609Z,98113.75
2022-11-02T19:01:29.542Z,98106.17
2022-11-02T19:03:59.835Z,98110.98
2022-11-02T19:06:49.823Z,98109.06
2022-11-02T19:09:21.010Z,98109.30
2022-11-02T19:12:04.993Z,98107.44
2022-11-02T19:14:38.549Z,98115.34
2022-11-02T19:17:07.544Z,98113.75
2022-11-02T19:19:35.895Z,98107.59
2022-11-02T19:22:03.905Z,98114.95
2022-11-02T19:24:31.356Z,98116.36
2022-11-02T19:26:59.018Z,98117.02
2022-11-02T19:29:26.611Z,98116.49
2022-11-02T19:31:53.923Z,98126.08
2022-11-02T19:34:22.590Z,98123.20
2022-11-02T19:36:50.160Z,98123.20
2022-11-02T19:39:17.716Z,98127.50
2022-11-02T19:41:46.935Z,98125.52
2022-11-02T19:44:14.182Z,98128.97
2022-11-02T19:49:09.081Z,98124.11
2022-11-02T19:51:36.599Z,98120.54
2022-11-02T19:54:04.756Z,98126.94
2022-11-02T19:56:35.218Z,98124.39
2022-11-02T19:59:04.400Z,98129.98
2022-11-02T20:01:36.373Z,98124.55
2022-11-02T20:04:04.521Z,98128.30
2022-11-02T20:06:36.034Z,98130.45
2022-11-02T20:09:06.325Z,98137.47
2022-11-02T20:11:35.521Z,98141.94
2022-11-02T20:14:04.883Z,98139.08
2022-11-02T20:16:32.468Z,98140.50
2022-11-02T20:19:00.338Z,98140.89
2022-11-02T20:21:34.602Z,98142.41
2022-11-02T20:24:00.486Z,98138.73
2022-11-02T20:26:36.430Z,98141.53
2022-11-02T20:29:05.805Z,98140.83
2022-11-02T20:31:39.956Z,98140.42
2022-11-02T20:34:08.823Z,98140.25
2022-11-02T20:36:36.343Z,98142.78
2022-11-02T20:39:05.121Z,98139.45
2022-11-02T20:41:33.188Z,98144.55
2022-11-02T20:44:01.220Z,98140.72
2022-11-02T20:46:37.698Z,98147.11
2022-11-02T20:49:08.516Z,98147.61
2022-11-02T20:51:29.764Z,98148.02
2022-11-02T20:53:57.612Z,98143.63
2022-11-02T20:56:25.187Z,98146.87
2022-11-02T20:58:55.631Z,98144.75
2022-11-02T21:01:22.096Z,98147.23
2022-11-02T21:03:49.888Z,98148.58
2022-11-02T21:06:17.500Z,98152.48
2022-11-02T21:08:44.857Z,98148.86
2022-11-02T21:11:30.486Z,98155.41
2022-11-02T21:13:57.797Z,98151.95
2022-11-02T21:16:25.416Z,98155.05
2022-11-02T21:18:52.736Z,98154.31
2022-11-02T21:21:21.511Z,98161.48
2022-11-02T21:23:49.053Z,98162.75
2022-11-02T21:26:16.908Z,98158.88
2022-11-02T21:28:45.675Z,98163.27
2022-11-02T21:31:21.123Z,98165.98
2022-11-02T21:33:49.707Z,98155.99
2022-11-02T21:36:18.354Z,98160.86
2022-11-02T21:38:48.153Z,98159.45
2022-11-02T21:41:24.043Z,98157.94
2022-11-02T21:43:52.083Z,98159.16
2022-11-02T21:46:20.049Z,98161.75
2022-11-02T21:48:48.091Z,98158.33
2022-11-02T21:51:19.999Z,98151.39
2022-11-02T21:53:49.456Z,98154.78
2022-11-02T21:56:20.560Z,98152.16
2022-11-02T21:58:48.963Z,98153.09
2022-11-02T22:01:42.481Z,98157.07
2022-11-02T22:04:13.550Z,98160.28
2022-11-02T22:06:41.967Z,98160.28
2022-11-02T22:09:12.381Z,98155.09
2022-11-02T22:11:40.571Z,98157.80
2022-11-02T22:14:08.237Z,98155.66
2022-11-02T22:16:39.576Z,98159.16
2022-11-02T22:19:13.782Z,98163.85
2022-11-02T22:21:45.600Z,98162.83
2022-11-02T22:24:13.253Z,98163.74
2022-11-02T22:26:41.069Z,98157.02
2022-11-02T22:29:08.959Z,98157.67
2022-11-02T22:31:39.804Z,98156.70
2022-11-02T22:34:10.028Z,98165.14
2022-11-02T22:36:40.497Z,98158.73
2022-11-02T22:39:12.202Z,98166.14
2022-11-02T22:41:47.978Z,98167.27
2022-11-02T22:44:18.602Z,98172.92
2022-11-02T22:46:49.192Z,98178.67
2022-11-02T22:49:19.361Z,98179.47
2022-11-02T22:51:49.985Z,98178.05
2022-11-02T22:54:19.511Z,98170.95
2022-11-02T22:56:49.120Z,98175.98
2022-11-02T22:59:16.707Z,98177.70
2022-11-02T23:01:44.802Z,98171.14
2022-11-02T23:04:13.036Z,98180.58
2022-11-02T23:06:40.417Z,98177.52
2022-11-02T23:09:10.634Z,98180.41
2022-11-02T23:11:38.409Z,98180.87
2022-11-02T23:14:12.765Z,98188.39
2022-11-02T23:16:48.769Z,98185.34
2022-11-02T23:19:30.532Z,98191.11
2022-11-02T23:22:16.043Z,98190.37
2022-11-02T23:25:09.096Z,98190.37
2022-11-02T23:28:16.069Z,98185.03
2022-11-02T23:31:02.652Z,98182.44
2022-11-02T23:33:32.732Z,98189.02
2022-11-02T23:36:11.763Z,98191.41
2022-11-02T23:39:02.613Z,98191.80
2022-11-02T23:41:32.670Z,98190.08
2022-11-02T23:44:13.296Z,98194.67
2022-11-02T23:46:44.614Z,98197.77
2022-11-02T23:49:13.388Z,98200.59
2022-11-02T23:51:59.390Z,98200.27
2022-11-02T23:54:45.508Z,98205.31
2022-11-02T23:57:13.274Z,98203.30
2022-11-02T23:59:40.742Z,98203.36
